createdAt,value
2022-09-23T00:00:54.019Z,95367.81
2022-09-23T00:03:20.349Z,95380.63
2022-09-23T00:05:46.681Z,95380.63
2022-09-23T00:08:13.017Z,95382.41
2022-09-23T00:10:39.358Z,95374.84
2022-09-23T00:13:05.725Z,95371.56
2022-09-23T00:15:32.066Z,95378.06
2022-09-23T00:17:58.361Z,95374.34
2022-09-23T00:20:24.687Z,95375.19
2022-09-23T00:22:51.011Z,95374.13
2022-09-23T00:25:17.339Z,95378.84
2022-09-23T00:27:43.656Z,95371.31
2022-09-23T00:30:09.980Z,95376.16
2022-09-23T00:32:36.316Z,95379.94
2022-09-23T00:35:02.646Z,95368.69
2022-09-23T00:37:28.980Z,95369.34
2022-09-23T00:39:55.428Z,95366.66
2022-09-23T00:42:21.763Z,95366.91
2022-09-23T00:44:48.101Z,95364.13
2022-09-23T00:47:14.409Z,95366.16
2022-09-23T00:49:40.752Z,95370.53
2022-09-23T00:52:07.094Z,95366.72
2022-09-23T00:54:33.409Z,95362.19
2022-09-23T00:56:59.732Z,95375.44
2022-09-23T00:59:26.047Z,95365.06
2022-09-23T01:01:52.367Z,95367.09
2022-09-23T01:04:18.673Z,95365.44
2022-09-23T01:06:45.024Z,95360.34
2022-09-23T01:09:11.346Z,95357.84
2022-09-23T01:11:37.658Z,95359.84
2022-09-23T01:14:03.992Z,95356.53
2022-09-23T01:16:30.364Z,95357.44
2022-09-23T01:18:56.720Z,95357.28
2022-09-23T01:21:23.039Z,95352.34
2022-09-23T01:23:49.346Z,95358.19
2022-09-23T01:26:15.679Z,95359.47
2022-09-23T01:28:42.004Z,95358.69
2022-09-23T01:31:08.407Z,95362.72
2022-09-23T01:33:34.793Z,95362.19
2022-09-23T01:36:01.122Z,95358.75
2022-09-23T01:38:27.430Z,95356.06
2022-09-23T01:40:53.743Z,95360.78
2022-09-23T01:43:20.090Z,95360.94
2022-09-23T01:45:46.425Z,95358.28
2022-09-23T01:48:12.784Z,95359.28
2022-09-23T01:50:39.206Z,95359.66
2022-09-23T01:53:05.542Z,95349.88
2022-09-23T01:55:31.957Z,95362.19
2022-09-23T01:57:58.315Z,95357.25
2022-09-23T02:00:24.662Z,95354.00
2022-09-23T02:02:51.021Z,95354.47
2022-09-23T02:05:17.361Z,95359.28
2022-09-23T02:07:43.674Z,95349.25
2022-09-23T02:10:10.009Z,95355.25
2022-09-23T02:12:36.319Z,95344.63
2022-09-23T02:15:02.643Z,95352.19
2022-09-23T02:17:28.977Z,95353.84
2022-09-23T02:19:55.394Z,95347.25
2022-09-23T02:22:21.725Z,95353.66
2022-09-23T02:24:48.063Z,95352.41
2022-09-23T02:27:14.408Z,95356.03
2022-09-23T02:29:40.733Z,95355.06
2022-09-23T02:32:07.103Z,95355.47
2022-09-23T02:34:33.499Z,95350.75
2022-09-23T02:36:59.815Z,95343.72
2022-09-23T02:39:26.150Z,95346.41
2022-09-23T02:41:52.470Z,95336.63
2022-09-23T02:44:18.814Z,95335.31
2022-09-23T02:46:45.144Z,95342.97
2022-09-23T02:49:11.471Z,95337.78
2022-09-23T02:51:37.803Z,95337.94
2022-09-23T02:54:04.142Z,95341.13
2022-09-23T02:56:30.456Z,95349.44
2022-09-23T02:58:56.795Z,95349.25
2022-09-23T03:01:23.189Z,95354.47
2022-09-23T03:03:49.565Z,95358.91
2022-09-23T03:06:15.922Z,95352.56
2022-09-23T03:08:42.246Z,95352.41
2022-09-23T03:11:08.643Z,95362.72
2022-09-23T03:13:35.038Z,95359.84
2022-09-23T03:16:01.473Z,95356.34
2022-09-23T03:18:27.834Z,95354.53
2022-09-23T03:20:54.183Z,95349.09
2022-09-23T03:23:20.502Z,95352.88
2022-09-23T03:25:46.835Z,95349.97
2022-09-23T03:28:13.181Z,95346.44
2022-09-23T03:30:39.499Z,95348.53
2022-09-23T03:33:05.843Z,95356.19
2022-09-23T03:35:32.200Z,95355.97
2022-09-23T03:37:58.531Z,95357.16
2022-09-23T03:40:24.902Z,95354.19
2022-09-23T03:42:51.269Z,95362.88
2022-09-23T03:45:17.602Z,95353.34
2022-09-23T03:47:43.940Z,95353.63
2022-09-23T03:50:10.331Z,95343.34
2022-09-23T03:52:36.679Z,95335.88
2022-09-23T03:55:03.029Z,95345.19
2022-09-23T03:57:29.349Z,95332.47
2022-09-23T03:59:55.689Z,95340.06
2022-09-23T04:02:22.098Z,95338.09
2022-09-23T04:04:48.447Z,95343.41
2022-09-23T04:07:14.812Z,95338.25
2022-09-23T04:09:41.174Z,95328.47
2022-09-23T04:12:07.494Z,95331.34
2022-09-23T04:14:33.810Z,95334.81
2022-09-23T04:17:00.130Z,95332.81
2022-09-23T04:19:26.454Z,95331.53
2022-09-23T04:21:52.790Z,95341.81
2022-09-23T04:24:19.110Z,95334.31
2022-09-23T04:26:45.456Z,95329.75
2022-09-23T04:29:11.796Z,95323.78
2022-09-23T04:31:38.204Z,95335.31
2022-09-23T04:34:04.591Z,95330.84
2022-09-23T04:36:30.933Z,95334.47
2022-09-23T04:38:57.264Z,95335.72
2022-09-23T04:41:23.611Z,95334.50
2022-09-23T04:43:49.927Z,95341.13
2022-09-23T04:46:16.383Z,95347.97
2022-09-23T04:48:42.753Z,95353.53
2022-09-23T04:51:09.104Z,95352.00
2022-09-23T04:53:35.434Z,95356.38
2022-09-23T04:56:01.764Z,95366.91
2022-09-23T04:58:28.105Z,95363.75
2022-09-23T05:00:54.473Z,95367.44
2022-09-23T05:03:20.854Z,95372.28
2022-09-23T05:05:47.187Z,95377.31
2022-09-23T05:08:13.514Z,95372.16
2022-09-23T05:10:39.860Z,95376.31
2022-09-23T05:13:06.208Z,95371.75
2022-09-23T05:15:32.528Z,95377.13
2022-09-23T05:17:58.851Z,95376.91
2022-09-23T05:20:25.189Z,95371.34
2022-09-23T05:22:51.515Z,95365.19
2022-09-23T05:25:17.855Z,95363.06
2022-09-23T05:27:44.219Z,95371.59
2022-09-23T05:30:10.616Z,95365.78
2022-09-23T05:32:36.939Z,95377.03
2022-09-23T05:35:03.287Z,95377.50
2022-09-23T05:37:29.688Z,95378.09
2022-09-23T05:39:56.028Z,95378.44
2022-09-23T05:42:22.586Z,95385.38
2022-09-23T05:44:48.929Z,95385.03
2022-09-23T05:47:15.295Z,95386.16
2022-09-23T05:49:58.733Z,95381.97
2022-09-23T05:52:25.789Z,95382.31
2022-09-23T05:54:52.113Z,95379.59
2022-09-23T05:57:18.433Z,95373.44
2022-09-23T05:59:44.775Z,95375.28
2022-09-23T06:02:11.160Z,95373.44
2022-09-23T06:04:37.525Z,95375.19
2022-09-23T06:07:03.932Z,95375.56
2022-09-23T06:09:35.587Z,95375.63
2022-09-23T06:12:02.771Z,95375.56
2022-09-23T06:14:29.119Z,95373.44
2022-09-23T06:16:55.446Z,95374.00
2022-09-23T06:19:21.780Z,95367.81
2022-09-23T06:21:48.086Z,95380.22
2022-09-23T06:24:18.366Z,95375.47
2022-09-23T06:26:46.215Z,95372.28
2022-09-23T06:29:12.540Z,95371.69
2022-09-23T06:31:38.897Z,95383.53
2022-09-23T06:34:11.719Z,95372.28
2022-09-23T06:36:43.727Z,95370.50
2022-09-23T06:39:11.568Z,95370.88
2022-09-23T06:41:37.882Z,95376.97
2022-09-23T06:44:04.238Z,95373.19
2022-09-23T06:46:30.577Z,95380.28
2022-09-23T06:48:56.944Z,95375.78
2022-09-23T06:51:23.258Z,95383.19
2022-09-23T06:53:49.580Z,95376.75
2022-09-23T06:56:15.909Z,95372.81
2022-09-23T06:58:42.246Z,95379.66
2022-09-23T07:01:08.588Z,95385.59
2022-09-23T07:03:34.901Z,95379.91
2022-09-23T07:06:01.212Z,95380.75
2022-09-23T07:08:27.536Z,95379.75
2022-09-23T07:10:53.851Z,95384.59
2022-09-23T07:13:20.197Z,95377.66
2022-09-23T07:15:46.578Z,95383.25
2022-09-23T07:18:12.915Z,95386.41
2022-09-23T07:20:39.247Z,95387.97
2022-09-23T07:23:05.579Z,95390.41
2022-09-23T07:25:31.904Z,95389.50
2022-09-23T07:27:58.250Z,95390.28
2022-09-23T07:30:25.628Z,95392.41
2022-09-23T07:32:52.176Z,95392.75
2022-09-23T07:35:18.527Z,95392.00
2022-09-23T07:37:44.850Z,95388.53
2022-09-23T07:40:11.224Z,95390.63
2022-09-23T07:42:37.563Z,95392.00
2022-09-23T07:45:03.893Z,95397.13
2022-09-23T07:47:30.205Z,95392.47
2022-09-23T07:49:56.552Z,95392.47
2022-09-23T07:52:22.871Z,95400.69
2022-09-23T07:54:49.198Z,95387.59
2022-09-23T07:57:15.542Z,95386.66
2022-09-23T07:59:41.861Z,95389.91
2022-09-23T08:02:08.189Z,95397.03
2022-09-23T08:04:34.525Z,95395.31
2022-09-23T08:07:00.858Z,95395.13
2022-09-23T08:09:27.191Z,95393.13
2022-09-23T08:11:53.518Z,95397.19
2022-09-23T08:14:19.857Z,95393.00
2022-09-23T08:16:46.184Z,95399.75
2022-09-23T08:19:12.515Z,95397.72
2022-09-23T08:21:38.844Z,95397.31
2022-09-23T08:24:05.235Z,95401.41
2022-09-23T08:26:31.575Z,95400.91
2022-09-23T08:28:57.899Z,95401.50
2022-09-23T08:31:24.273Z,95409.09
2022-09-23T08:33:50.634Z,95401.63
2022-09-23T08:36:16.972Z,95406.47
2022-09-23T08:38:43.303Z,95408.88
2022-09-23T08:41:09.628Z,95404.88
2022-09-23T08:43:35.940Z,95405.53
2022-09-23T08:46:02.293Z,95403.06
2022-09-23T08:48:28.643Z,95401.91
2022-09-23T08:50:54.945Z,95397.56
2022-09-23T08:53:21.262Z,95397.19
2022-09-23T08:55:47.579Z,95395.84
2022-09-23T08:58:25.013Z,95404.94
2022-09-23T09:00:52.153Z,95409.69
2022-09-23T09:03:18.489Z,95415.84
2022-09-23T09:05:53.768Z,95402.59
2022-09-23T09:08:20.642Z,95402.72
2022-09-23T09:10:46.970Z,95402.44
2022-09-23T09:13:13.317Z,95392.84
2022-09-23T09:15:39.671Z,95392.94
2022-09-23T09:18:06.030Z,95390.66
2022-09-23T09:20:32.359Z,95389.00
2022-09-23T09:22:58.686Z,95387.72
2022-09-23T09:25:25.002Z,95383.38
2022-09-23T09:27:51.321Z,95383.25
2022-09-23T09:30:17.732Z,95383.03
2022-09-23T09:32:44.051Z,95376.06
2022-09-23T09:35:10.386Z,95376.66
2022-09-23T09:37:36.714Z,95374.47
2022-09-23T09:40:03.038Z,95375.31
2022-09-23T09:42:29.353Z,95369.63
2022-09-23T09:44:55.695Z,95373.94
2022-09-23T09:47:22.026Z,95367.16
2022-09-23T09:49:48.357Z,95379.16
2022-09-23T09:52:14.766Z,95375.63
2022-09-23T09:54:41.030Z,95375.34
2022-09-23T09:57:07.482Z,95376.03
2022-09-23T09:59:33.813Z,95378.25
2022-09-23T10:02:00.145Z,95381.06
2022-09-23T10:04:26.481Z,95379.50
2022-09-23T10:06:52.820Z,95367.50
2022-09-23T10:09:19.163Z,95373.75
2022-09-23T10:11:45.486Z,95370.41
2022-09-23T10:14:11.794Z,95370.09
2022-09-23T10:16:38.134Z,95360.34
2022-09-23T10:19:04.579Z,95360.50
2022-09-23T10:21:30.905Z,95365.53
2022-09-23T10:23:57.221Z,95356.56
2022-09-23T10:26:23.572Z,95350.03
2022-09-23T10:28:49.882Z,95350.13
2022-09-23T10:31:16.258Z,95341.13
2022-09-23T10:33:42.606Z,95339.31
2022-09-23T10:36:08.941Z,95331.97
2022-09-23T10:38:35.341Z,95333.19
2022-09-23T10:41:01.759Z,95330.56
2022-09-23T10:43:28.202Z,95324.38
2022-09-23T10:45:54.548Z,95317.63
2022-09-23T10:48:20.895Z,95321.88
2022-09-23T10:50:47.206Z,95327.09
2022-09-23T10:53:13.511Z,95317.25
2022-09-23T10:55:39.843Z,95316.56
2022-09-23T10:58:06.166Z,95310.44
2022-09-23T11:00:32.504Z,95318.44
2022-09-23T11:02:58.851Z,95312.66
2022-09-23T11:05:25.182Z,95315.91
2022-09-23T11:07:51.508Z,95311.59
2022-09-23T11:10:29.077Z,95298.94
2022-09-23T11:13:04.131Z,95296.91
2022-09-23T11:15:30.459Z,95295.34
2022-09-23T11:17:56.788Z,95296.63
2022-09-23T11:20:23.148Z,95303.31
2022-09-23T11:22:49.496Z,95294.03
2022-09-23T11:25:15.833Z,95288.38
2022-09-23T11:27:42.163Z,95294.34
2022-09-23T11:30:08.486Z,95284.75
2022-09-23T11:32:34.826Z,95290.81
2022-09-23T11:35:01.139Z,95287.59
2022-09-23T11:37:27.449Z,95277.78
2022-09-23T11:39:53.768Z,95272.88
2022-09-23T11:42:20.102Z,95270.16
2022-09-23T11:44:46.427Z,95263.09
2022-09-23T11:47:12.879Z,95263.13
2022-09-23T11:49:39.228Z,95256.75
2022-09-23T11:52:05.546Z,95264.78
2022-09-23T11:54:31.897Z,95262.97
2022-09-23T11:56:58.207Z,95263.88
2022-09-23T11:59:34.504Z,95253.44
2022-09-23T12:02:15.343Z,95256.31
2022-09-23T12:04:56.330Z,95256.34
2022-09-23T12:07:24.274Z,95257.06
2022-09-23T12:09:58.823Z,95256.72
2022-09-23T12:12:27.223Z,95252.72
2022-09-23T12:14:53.676Z,95242.38
2022-09-23T12:17:20.010Z,95243.13
2022-09-23T12:19:46.328Z,95237.13
2022-09-23T12:22:12.665Z,95239.84
2022-09-23T12:24:38.988Z,95240.97
2022-09-23T12:27:05.302Z,95232.78
2022-09-23T12:29:31.614Z,95232.44
2022-09-23T12:31:57.970Z,95228.13
2022-09-23T12:34:24.281Z,95228.63
2022-09-23T12:36:50.600Z,95223.75
2022-09-23T12:39:16.926Z,95219.78
2022-09-23T12:41:43.239Z,95215.25
2022-09-23T12:44:09.586Z,95219.56
2022-09-23T12:46:36.000Z,95222.13
2022-09-23T12:49:02.319Z,95215.91
2022-09-23T12:51:28.635Z,95218.28
2022-09-23T12:53:54.950Z,95210.28
2022-09-23T12:56:21.271Z,95215.22
2022-09-23T12:58:47.594Z,95195.31
2022-09-23T13:01:14.137Z,95207.41
2022-09-23T13:03:40.590Z,95199.31
2022-09-23T13:06:06.920Z,95198.91
2022-09-23T13:08:33.247Z,95193.69
2022-09-23T13:10:59.575Z,95188.81
2022-09-23T13:13:25.903Z,95181.75
2022-09-23T13:15:52.210Z,95187.34
2022-09-23T13:18:18.535Z,95175.59
2022-09-23T13:20:44.886Z,95177.38
2022-09-23T13:23:11.209Z,95170.31
2022-09-23T13:25:37.521Z,95168.16
2022-09-23T13:28:04.002Z,95167.28
2022-09-23T13:30:30.370Z,95170.88
2022-09-23T13:32:56.699Z,95162.72
2022-09-23T13:35:23.029Z,95171.03
2022-09-23T13:37:49.365Z,95174.66
2022-09-23T13:40:15.747Z,95164.56
2022-09-23T13:42:42.110Z,95175.03
2022-09-23T13:45:08.470Z,95160.94
2022-09-23T13:47:34.845Z,95161.13
2022-09-23T13:50:01.239Z,95166.72
2022-09-23T13:52:27.586Z,95164.91
2022-09-23T13:54:53.923Z,95160.00
2022-09-23T13:57:20.240Z,95150.22
2022-09-23T13:59:46.566Z,95151.13
2022-09-23T14:02:12.920Z,95145.53
2022-09-23T14:04:39.309Z,95155.50
2022-09-23T14:07:05.624Z,95150.25
2022-09-23T14:09:31.957Z,95147.19
2022-09-23T14:11:58.278Z,95142.47
2022-09-23T14:14:24.610Z,95139.38
2022-09-23T14:16:50.973Z,95136.31
2022-09-23T14:19:17.343Z,95127.25
2022-09-23T14:21:43.654Z,95134.66
2022-09-23T14:24:10.025Z,95138.84
2022-09-23T14:26:36.471Z,95133.94
2022-09-23T14:29:02.957Z,95133.41
2022-09-23T14:31:29.413Z,95134.50
2022-09-23T14:33:55.760Z,95134.88
2022-09-23T14:36:22.078Z,95129.44
2022-09-23T14:38:48.409Z,95132.34
2022-09-23T14:41:14.734Z,95129.25
2022-09-23T14:43:41.059Z,95125.63
2022-09-23T14:46:07.437Z,95122.00
2022-09-23T14:48:33.804Z,95114.03
2022-09-23T14:51:00.140Z,95119.09
2022-09-23T14:53:26.479Z,95112.03
2022-09-23T14:55:52.812Z,95109.84
2022-09-23T14:58:19.189Z,95111.69
2022-09-23T15:00:45.616Z,95112.56
2022-09-23T15:03:11.975Z,95102.63
2022-09-23T15:05:38.321Z,95104.25
2022-09-23T15:08:04.667Z,95106.41
2022-09-23T15:10:31.002Z,95097.00
2022-09-23T15:12:57.323Z,95096.44
2022-09-23T15:15:23.651Z,95087.41
2022-09-23T15:17:49.990Z,95090.66
2022-09-23T15:20:16.322Z,95093.16
2022-09-23T15:22:42.640Z,95095.69
2022-09-23T15:25:08.983Z,95090.81
2022-09-23T15:27:35.299Z,95086.44
2022-09-23T15:30:01.618Z,95086.13
2022-09-23T15:32:27.946Z,95081.13
2022-09-23T15:34:54.296Z,95086.91
2022-09-23T15:37:20.649Z,95078.25
2022-09-23T15:39:46.973Z,95085.59
2022-09-23T15:42:13.288Z,95087.63
2022-09-23T15:44:39.640Z,95083.97
2022-09-23T15:47:05.966Z,95090.78
2022-09-23T15:49:32.266Z,95090.28
2022-09-23T15:51:58.595Z,95086.19
2022-09-23T15:54:24.930Z,95090.03
2022-09-23T15:56:51.249Z,95086.97
2022-09-23T15:59:17.662Z,95083.38
2022-09-23T16:01:44.097Z,95092.41
2022-09-23T16:04:10.476Z,95093.88
2022-09-23T16:06:36.812Z,95087.38
2022-09-23T16:09:03.204Z,95085.53
2022-09-23T16:11:29.560Z,95085.72
2022-09-23T16:13:55.883Z,95089.88
2022-09-23T16:16:22.274Z,95086.25
2022-09-23T16:18:48.685Z,95088.97
2022-09-23T16:21:15.011Z,95090.25
2022-09-23T16:23:41.346Z,95080.31
2022-09-23T16:26:07.674Z,95076.88
2022-09-23T16:28:34.053Z,95069.59
2022-09-23T16:31:00.388Z,95063.47
2022-09-23T16:33:26.725Z,95067.09
2022-09-23T16:35:53.042Z,95067.28
2022-09-23T16:38:19.360Z,95072.72
2022-09-23T16:40:47.335Z,95067.84
2022-09-23T16:43:13.835Z,95072.88
2022-09-23T16:45:40.243Z,95081.56
2022-09-23T16:48:06.614Z,95076.50
2022-09-23T16:50:32.945Z,95075.59
2022-09-23T16:52:59.283Z,95074.69
2022-09-23T16:55:25.632Z,95073.09
2022-09-23T16:57:51.996Z,95065.84
2022-09-23T17:00:18.333Z,95073.44
2022-09-23T17:02:44.706Z,95072.88
2022-09-23T17:05:11.075Z,95074.72
2022-09-23T17:07:37.396Z,95072.88
2022-09-23T17:10:03.718Z,95076.50
2022-09-23T17:12:30.028Z,95083.03
2022-09-23T17:14:56.358Z,95089.16
2022-09-23T17:17:22.677Z,95089.16
2022-09-23T17:19:49.014Z,95079.75
2022-09-23T17:22:15.337Z,95080.13
2022-09-23T17:24:41.665Z,95078.69
2022-09-23T17:27:08.001Z,95077.63
2022-09-23T17:29:34.337Z,95080.69
2022-09-23T17:32:00.753Z,95080.50
2022-09-23T17:34:27.141Z,95080.88
2022-09-23T17:36:53.552Z,95076.53
2022-09-23T17:39:19.880Z,95082.13
2022-09-23T17:41:46.282Z,95084.47
2022-09-23T17:44:12.644Z,95075.06
2022-09-23T17:46:38.961Z,95070.19
2022-09-23T17:49:05.302Z,95053.69
2022-09-23T17:51:31.658Z,95055.88
2022-09-23T17:53:58.017Z,95056.03
2022-09-23T17:56:24.345Z,95052.44
2022-09-23T17:58:50.676Z,95053.88
2022-09-23T18:01:17.142Z,95060.56
2022-09-23T18:03:43.572Z,95052.63
2022-09-23T18:06:09.891Z,95047.34
2022-09-23T18:08:36.222Z,95039.03
2022-09-23T18:11:02.536Z,95033.41
2022-09-23T18:13:28.880Z,95030.91
2022-09-23T18:15:55.255Z,95024.75
2022-09-23T18:18:21.642Z,95028.53
2022-09-23T18:20:47.949Z,95026.19
2022-09-23T18:23:14.276Z,95028.34
2022-09-23T18:25:40.594Z,95025.47
2022-09-23T18:28:06.907Z,95033.25
2022-09-23T18:30:33.244Z,95026.19
2022-09-23T18:32:59.568Z,95029.97
2022-09-23T18:35:25.922Z,95039.22
2022-09-23T18:37:52.343Z,95039.03
2022-09-23T18:40:18.706Z,95041.75
2022-09-23T18:42:45.080Z,95041.03
2022-09-23T18:45:11.398Z,95045.03
2022-09-23T18:47:37.780Z,95047.75
2022-09-23T18:50:04.107Z,95040.31
2022-09-23T18:52:30.410Z,95043.19
2022-09-23T18:54:56.723Z,95038.13
2022-09-23T18:57:23.065Z,95031.25
2022-09-23T18:59:49.404Z,95036.88
2022-09-23T19:02:15.798Z,95028.00
2022-09-23T19:04:42.168Z,95045.38
2022-09-23T19:07:08.498Z,95043.56
2022-09-23T19:09:34.814Z,95049.53
2022-09-23T19:12:01.143Z,95048.97
2022-09-23T19:14:27.482Z,95054.69
2022-09-23T19:16:53.850Z,95055.25
2022-09-23T19:19:20.192Z,95058.28
2022-09-23T19:21:46.548Z,95059.41
2022-09-23T19:24:12.877Z,95063.75
2022-09-23T19:26:39.225Z,95058.28
2022-09-23T19:29:05.559Z,95069.44
2022-09-23T19:31:32.076Z,95064.47
2022-09-23T19:33:58.477Z,95068.69
2022-09-23T19:36:24.979Z,95067.81
2022-09-23T19:38:51.328Z,95062.97
2022-09-23T19:41:17.680Z,95071.28
2022-09-23T19:43:44.033Z,95061.88
2022-09-23T19:46:10.382Z,95068.28
2022-09-23T19:48:36.757Z,95069.19
2022-09-23T19:51:03.175Z,95067.75
2022-09-23T19:53:29.527Z,95063.59
2022-09-23T19:55:55.888Z,95065.19
2022-09-23T19:58:22.248Z,95057.81
2022-09-23T20:00:48.750Z,95060.13
2022-09-23T20:03:15.152Z,95063.00
2022-09-23T20:05:41.569Z,95061.19
2022-09-23T20:08:07.927Z,95055.06
2022-09-23T20:10:34.355Z,95050.88
2022-09-23T20:13:00.708Z,95048.69
2022-09-23T20:15:27.372Z,95040.00
2022-09-23T20:17:53.880Z,95048.00
2022-09-23T20:20:20.242Z,95040.56
2022-09-23T20:22:46.854Z,95040.72
2022-09-23T20:25:13.545Z,95032.59
2022-09-23T20:27:39.936Z,95038.22
2022-09-23T20:30:06.668Z,95050.84
2022-09-23T20:32:33.276Z,95046.31
2022-09-23T20:35:00.012Z,95043.22
2022-09-23T20:37:26.444Z,95038.31
2022-09-23T20:39:52.912Z,95048.47
2022-09-23T20:42:19.462Z,95047.03
2022-09-23T20:44:45.785Z,95045.75
2022-09-23T20:47:12.155Z,95048.09
2022-09-23T20:49:38.518Z,95053.16
2022-09-23T20:52:04.875Z,95056.94
2022-09-23T20:54:31.204Z,95055.69
2022-09-23T20:56:57.522Z,95044.97
2022-09-23T20:59:23.833Z,95051.25
2022-09-23T21:01:50.301Z,95053.72
2022-09-23T21:04:16.632Z,95052.66
2022-09-23T21:06:42.964Z,95055.00
2022-09-23T21:09:09.308Z,95052.28
2022-09-23T21:11:35.644Z,95052.28
2022-09-23T21:14:02.072Z,95053.72
2022-09-23T21:16:28.562Z,95058.38
2022-09-23T21:18:54.930Z,95056.22
2022-09-23T21:21:22.474Z,95055.88
2022-09-23T21:23:48.922Z,95055.72
2022-09-23T21:26:15.257Z,95055.72
2022-09-23T21:28:41.587Z,95057.31
2022-09-23T21:31:08.005Z,95055.09
2022-09-23T21:33:34.428Z,95046.94
2022-09-23T21:36:00.755Z,95048.03
2022-09-23T21:38:27.089Z,95048.72
2022-09-23T21:40:53.469Z,95056.47
2022-09-23T21:43:19.854Z,95057.22
2022-09-23T21:45:46.184Z,95057.06
2022-09-23T21:48:12.514Z,95051.78
2022-09-23T21:50:38.838Z,95054.28
2022-09-23T21:53:05.154Z,95054.25
2022-09-23T21:55:31.481Z,95058.13
2022-09-23T21:57:57.804Z,95062.56
2022-09-23T22:00:24.126Z,95061.34
2022-09-23T22:02:50.451Z,95065.22
2022-09-23T22:05:16.820Z,95064.88
2022-09-23T22:07:43.159Z,95061.25
2022-09-23T22:10:09.532Z,95061.50
2022-09-23T22:12:35.936Z,95063.28
2022-09-23T22:15:02.267Z,95056.28
2022-09-23T22:17:28.721Z,95062.63
2022-09-23T22:19:55.067Z,95050.34
2022-09-23T22:22:21.413Z,95058.84
2022-09-23T22:24:47.756Z,95051.25
2022-09-23T22:27:14.084Z,95060.50
2022-09-23T22:29:40.436Z,95050.75
2022-09-23T22:32:06.808Z,95054.34
2022-09-23T22:34:48.928Z,95040.59
2022-09-23T22:37:15.657Z,95046.44
2022-09-23T22:39:41.996Z,95046.75
2022-09-23T22:42:08.340Z,95041.16
2022-09-23T22:44:34.692Z,95043.72
2022-09-23T22:47:01.205Z,95043.38
2022-09-23T22:49:27.695Z,95042.78
2022-09-23T22:51:54.016Z,95040.81
2022-09-23T22:54:20.335Z,95047.72
2022-09-23T22:56:46.650Z,95039.56
2022-09-23T22:59:13.017Z,95037.03
2022-09-23T23:01:39.464Z,95031.81
2022-09-23T23:04:06.227Z,95039.22
2022-09-23T23:06:32.694Z,95032.69
2022-09-23T23:08:59.027Z,95033.06
2022-09-23T23:11:25.365Z,95030.34
2022-09-23T23:13:51.719Z,95034.53
2022-09-23T23:16:18.094Z,95033.78
2022-09-23T23:18:44.510Z,95033.41
2022-09-23T23:21:10.851Z,95023.28
2022-09-23T23:23:37.193Z,95022.56
2022-09-23T23:26:08.983Z,95020.56
2022-09-23T23:28:35.974Z,95016.03
2022-09-23T23:31:02.443Z,95012.97
2022-09-23T23:33:28.827Z,95010.63
2022-09-23T23:35:55.191Z,95012.41
2022-09-23T23:38:21.536Z,95013.31
2022-09-23T23:40:47.998Z,94992.50
2022-09-23T23:43:14.430Z,94999.41
2022-09-23T23:45:40.766Z,94992.69
2022-09-23T23:48:07.111Z,94990.53
2022-09-23T23:50:33.454Z,94997.59
2022-09-23T23:52:59.787Z,94996.69
2022-09-23T23:55:26.123Z,94995.41
2022-09-23T23:57:52.469Z,94991.25
